createdAt,value
2023-04-18T00:00:20.072Z,9.82
2023-04-18T00:03:16.083Z,9.79
2023-04-18T00:05:49.902Z,9.80
2023-04-18T00:08:21.917Z,9.77
2023-04-18T00:10:54.275Z,9.76
2023-04-18T00:13:28.569Z,9.74
2023-04-18T00:16:00.651Z,9.72
2023-04-18T00:18:32.590Z,9.71
2023-04-18T00:21:05.011Z,9.72
2023-04-18T00:23:37.331Z,9.68
2023-04-18T00:26:09.379Z,9.65
2023-04-18T00:28:41.886Z,9.65
2023-04-18T00:31:15.785Z,9.66
2023-04-18T00:33:47.755Z,9.66
2023-04-18T00:36:20.868Z,9.66
2023-04-18T00:38:52.785Z,9.69
2023-04-18T00:41:27.650Z,9.72
2023-04-18T00:43:59.668Z,9.70
2023-04-18T00:46:31.681Z,9.70
2023-04-18T00:49:03.692Z,9.70
2023-04-18T00:51:37.105Z,9.76
2023-04-18T00:54:13.693Z,9.75
2023-04-18T00:56:47.021Z,9.73
2023-04-18T00:59:21.828Z,9.70
2023-04-18T01:01:53.892Z,9.69
2023-04-18T01:04:26.524Z,9.69
2023-04-18T01:06:58.785Z,9.71
2023-04-18T01:09:31.310Z,9.68
2023-04-18T01:12:04.154Z,9.69
2023-04-18T01:14:36.244Z,9.70
2023-04-18T01:17:11.102Z,9.67
2023-04-18T01:19:43.174Z,9.66
2023-04-18T01:22:16.636Z,9.68
2023-04-18T01:24:48.614Z,9.71
2023-04-18T01:27:21.945Z,9.71
2023-04-18T01:29:53.893Z,9.72
2023-04-18T01:32:25.940Z,9.71
2023-04-18T01:34:58.003Z,9.72
2023-04-18T01:37:29.990Z,9.71
2023-04-18T01:40:02.316Z,9.68
2023-04-18T01:42:34.459Z,9.65
2023-04-18T01:45:08.777Z,9.63
2023-04-18T01:47:40.784Z,9.60
2023-04-18T01:50:15.970Z,9.57
2023-04-18T01:52:48.079Z,9.58
2023-04-18T01:55:21.605Z,9.59
2023-04-18T01:57:53.637Z,9.61
2023-04-18T02:00:26.133Z,9.62
2023-04-18T02:02:59.282Z,9.61
2023-04-18T02:05:31.570Z,9.60
2023-04-18T02:08:04.941Z,9.62
2023-04-18T02:10:37.237Z,9.60
2023-04-18T02:13:09.522Z,9.61
2023-04-18T02:15:41.570Z,9.62
2023-04-18T02:18:13.598Z,9.62
2023-04-18T02:20:45.739Z,9.62
2023-04-18T02:23:17.796Z,9.63
2023-04-18T02:25:50.888Z,9.61
2023-04-18T02:28:22.806Z,9.61
2023-04-18T02:30:54.741Z,9.60
2023-04-18T02:33:26.796Z,9.60
2023-04-18T02:35:58.774Z,9.62
2023-04-18T02:38:31.897Z,9.61
2023-04-18T02:41:04.231Z,9.60
2023-04-18T02:43:36.262Z,9.57
2023-04-18T02:46:08.695Z,9.55
2023-04-18T02:48:40.939Z,9.54
2023-04-18T02:51:13.434Z,9.55
2023-04-18T02:53:45.438Z,9.53
2023-04-18T02:56:19.378Z,9.50
2023-04-18T02:59:10.038Z,9.47
2023-04-18T03:02:12.497Z,9.50
2023-04-18T03:04:49.360Z,9.50
2023-04-18T03:07:21.426Z,9.50
2023-04-18T03:09:54.198Z,9.50
2023-04-18T03:12:32.182Z,9.49
2023-04-18T03:15:05.096Z,9.50
2023-04-18T03:17:37.354Z,9.49
2023-04-18T03:20:12.310Z,9.48
2023-04-18T03:22:44.356Z,9.53
2023-04-18T03:25:16.754Z,9.51
2023-04-18T03:27:52.122Z,9.52
2023-04-18T03:30:25.583Z,9.55
2023-04-18T03:33:02.998Z,9.52
2023-04-18T03:35:34.097Z,9.49
2023-04-18T03:38:06.068Z,9.47
2023-04-18T03:40:42.351Z,9.47
2023-04-18T03:43:20.020Z,9.45
2023-04-18T03:45:52.400Z,9.47
2023-04-18T03:48:24.871Z,9.46
2023-04-18T03:50:57.316Z,9.47
2023-04-18T03:53:29.357Z,9.50
2023-04-18T03:56:01.335Z,9.51
2023-04-18T03:58:46.254Z,9.54
2023-04-18T04:01:18.612Z,9.57
2023-04-18T04:03:50.721Z,9.65
2023-04-18T04:06:23.102Z,9.69
2023-04-18T04:08:55.106Z,9.71
2023-04-18T04:11:30.004Z,9.69
2023-04-18T04:14:02.262Z,9.65
2023-04-18T04:16:39.203Z,9.64
2023-04-18T04:19:11.674Z,9.63
2023-04-18T04:21:48.708Z,9.62
2023-04-18T04:24:22.767Z,9.63
2023-04-18T04:26:56.466Z,9.64
2023-04-18T04:29:29.108Z,9.65
2023-04-18T04:32:05.869Z,9.65
2023-04-18T04:34:42.034Z,9.66
2023-04-18T04:37:18.760Z,9.67
2023-04-18T04:40:01.001Z,9.68
2023-04-18T04:43:05.636Z,9.66
2023-04-18T04:45:42.018Z,9.68
2023-04-18T04:48:14.101Z,9.69
2023-04-18T04:50:54.673Z,9.70
2023-04-18T04:53:28.038Z,9.70
2023-04-18T04:56:00.471Z,9.74
2023-04-18T04:58:32.671Z,9.75
2023-04-18T05:01:18.707Z,9.77
2023-04-18T05:03:51.681Z,9.77
2023-04-18T05:06:23.983Z,9.76
2023-04-18T05:08:57.565Z,9.76
2023-04-18T05:11:30.053Z,9.76
2023-04-18T05:14:02.121Z,9.76
2023-04-18T05:16:34.391Z,9.77
2023-04-18T05:19:06.435Z,9.81
2023-04-18T05:21:38.964Z,9.85
2023-04-18T05:24:11.815Z,9.91
2023-04-18T05:26:44.331Z,9.92
2023-04-18T05:29:16.312Z,9.95
2023-04-18T05:31:48.342Z,9.97
2023-04-18T05:34:20.547Z,10.00
2023-04-18T05:36:52.862Z,10.01
2023-04-18T05:39:24.873Z,10.04
2023-04-18T05:41:57.028Z,10.06
2023-04-18T05:44:29.470Z,10.10
2023-04-18T05:47:01.954Z,10.14
2023-04-18T05:49:34.143Z,10.16
2023-04-18T05:52:06.624Z,10.22
2023-04-18T05:54:38.616Z,10.23
2023-04-18T05:57:10.716Z,10.22
2023-04-18T05:59:42.727Z,10.25
2023-04-18T06:02:14.788Z,10.26
2023-04-18T06:04:47.263Z,10.30
2023-04-18T06:07:19.612Z,10.31
2023-04-18T06:09:51.706Z,10.36
2023-04-18T06:12:23.734Z,10.40
2023-04-18T06:14:56.026Z,10.46
2023-04-18T06:17:28.157Z,10.57
2023-04-18T06:20:00.309Z,10.65
2023-04-18T06:22:32.349Z,10.71
2023-04-18T06:25:06.212Z,10.75
2023-04-18T06:27:40.802Z,10.85
2023-04-18T06:30:13.710Z,10.89
2023-04-18T06:32:45.704Z,10.93
2023-04-18T06:35:18.017Z,10.96
2023-04-18T06:37:50.042Z,11.00
2023-04-18T06:40:22.372Z,11.00
2023-04-18T06:42:54.423Z,11.06
2023-04-18T06:45:26.470Z,11.07
2023-04-18T06:47:59.841Z,11.04
2023-04-18T06:50:32.560Z,11.07
2023-04-18T06:53:04.627Z,11.08
2023-04-18T06:55:37.140Z,11.06
2023-04-18T06:58:10.308Z,11.09
2023-04-18T07:00:42.346Z,11.15
2023-04-18T07:03:14.527Z,11.17
2023-04-18T07:05:47.055Z,11.19
2023-04-18T07:08:19.062Z,11.20
2023-04-18T07:10:51.322Z,11.27
2023-04-18T07:13:23.501Z,11.31
2023-04-18T07:15:55.934Z,11.37
2023-04-18T07:18:37.256Z,11.44
2023-04-18T07:21:08.474Z,11.46
2023-04-18T07:23:40.577Z,11.50
2023-04-18T07:26:13.826Z,11.59
2023-04-18T07:28:45.833Z,11.71
2023-04-18T07:31:19.668Z,11.80
2023-04-18T07:33:51.701Z,11.86
2023-04-18T07:36:23.865Z,11.96
2023-04-18T07:38:55.918Z,12.01
2023-04-18T07:41:27.986Z,12.07
2023-04-18T07:44:01.206Z,12.09
2023-04-18T07:46:34.083Z,12.13
2023-04-18T07:49:06.441Z,12.20
2023-04-18T07:51:38.553Z,12.27
2023-04-18T07:54:11.377Z,12.35
2023-04-18T07:56:43.454Z,12.46
2023-04-18T07:59:15.870Z,12.59
2023-04-18T08:01:48.343Z,12.73
2023-04-18T08:04:20.749Z,12.85
2023-04-18T08:06:53.317Z,13.01
2023-04-18T08:09:26.283Z,13.20
2023-04-18T08:11:59.287Z,13.41
2023-04-18T08:14:31.290Z,13.63
2023-04-18T08:17:03.629Z,13.90
2023-04-18T08:19:35.619Z,14.17
2023-04-18T08:22:13.826Z,14.56
2023-04-18T08:25:01.059Z,14.79
2023-04-18T08:27:36.442Z,14.92
2023-04-18T08:30:10.717Z,14.99
2023-04-18T08:32:42.817Z,15.07
2023-04-18T08:35:14.884Z,15.29
2023-04-18T08:37:46.961Z,15.61
2023-04-18T08:40:19.726Z,15.89
2023-04-18T08:42:53.861Z,16.06
2023-04-18T08:45:26.405Z,16.18
2023-04-18T08:48:01.599Z,16.29
2023-04-18T08:50:33.698Z,16.45
2023-04-18T08:53:05.979Z,16.52
2023-04-18T08:55:38.777Z,16.46
2023-04-18T08:58:12.732Z,16.42
2023-04-18T09:00:50.519Z,16.44
2023-04-18T09:03:39.810Z,16.56
2023-04-18T09:06:16.427Z,16.57
2023-04-18T09:09:00.323Z,16.43
2023-04-18T09:11:34.612Z,16.30
2023-04-18T09:14:06.742Z,16.27
2023-04-18T09:16:48.322Z,16.12
2023-04-18T09:19:21.796Z,15.98
2023-04-18T09:22:01.414Z,15.90
2023-04-18T09:24:34.483Z,15.86
2023-04-18T09:27:15.242Z,15.84
2023-04-18T09:29:49.491Z,15.82
2023-04-18T09:32:27.195Z,15.96
2023-04-18T09:35:04.077Z,16.17
2023-04-18T09:37:36.895Z,16.46
2023-04-18T09:40:19.514Z,16.65
2023-04-18T09:42:54.590Z,16.85
2023-04-18T09:45:27.650Z,16.85
2023-04-18T09:47:59.988Z,16.73
2023-04-18T09:50:32.816Z,16.80
2023-04-18T09:53:05.160Z,16.99
2023-04-18T09:55:38.319Z,17.22
2023-04-18T09:58:11.859Z,17.53
2023-04-18T10:00:46.743Z,17.89
2023-04-18T10:03:21.465Z,18.13
2023-04-18T10:05:57.145Z,18.31
2023-04-18T10:08:30.536Z,18.30
2023-04-18T10:11:02.884Z,18.23
2023-04-18T10:13:38.373Z,18.00
2023-04-18T10:16:11.231Z,17.73
2023-04-18T10:18:45.471Z,17.47
2023-04-18T10:21:17.464Z,17.18
2023-04-18T10:23:50.520Z,17.31
2023-04-18T10:26:22.645Z,17.73
2023-04-18T10:28:57.002Z,18.09
2023-04-18T10:31:30.356Z,18.44
2023-04-18T10:34:07.401Z,18.75
2023-04-18T10:36:59.330Z,18.97
2023-04-18T10:39:31.454Z,19.08
2023-04-18T10:42:03.524Z,19.04
2023-04-18T10:44:35.583Z,19.03
2023-04-18T10:47:26.184Z,19.02
2023-04-18T10:50:06.775Z,19.12
2023-04-18T10:52:39.631Z,19.38
2023-04-18T10:55:19.412Z,19.64
2023-04-18T10:57:56.164Z,19.88
2023-04-18T11:00:29.546Z,19.92
2023-04-18T11:03:01.848Z,19.99
2023-04-18T11:05:34.272Z,20.10
2023-04-18T11:08:06.989Z,20.13
2023-04-18T11:10:39.234Z,20.30
2023-04-18T11:13:11.282Z,20.18
2023-04-18T11:15:43.850Z,20.16
2023-04-18T11:18:16.096Z,20.21
2023-04-18T11:20:51.857Z,20.18
2023-04-18T11:23:25.233Z,20.35
2023-04-18T11:25:58.411Z,20.62
2023-04-18T11:28:30.432Z,21.01
2023-04-18T11:31:04.096Z,21.41
2023-04-18T11:33:36.152Z,21.71
2023-04-18T11:36:09.926Z,22.09
2023-04-18T11:38:43.169Z,22.35
2023-04-18T11:41:18.574Z,22.73
2023-04-18T11:43:50.971Z,23.04
2023-04-18T11:46:22.996Z,23.04
2023-04-18T11:48:55.006Z,23.14
2023-04-18T11:51:38.927Z,23.32
2023-04-18T11:54:43.905Z,23.35
2023-04-18T11:57:29.829Z,22.97
2023-04-18T12:00:03.526Z,22.58
2023-04-18T12:02:47.252Z,22.65
2023-04-18T12:05:29.381Z,22.71
2023-04-18T12:08:08.603Z,22.64
2023-04-18T12:10:47.398Z,22.61
2023-04-18T12:13:20.494Z,22.69
2023-04-18T12:15:52.564Z,22.80
2023-04-18T12:18:26.145Z,22.89
2023-04-18T12:21:02.129Z,23.12
2023-04-18T12:23:37.217Z,23.58
2023-04-18T12:26:13.411Z,24.05
2023-04-18T12:28:48.156Z,24.50
2023-04-18T12:31:21.746Z,24.82
2023-04-18T12:33:54.530Z,24.69
2023-04-18T12:36:28.566Z,24.84
2023-04-18T12:39:00.662Z,25.18
2023-04-18T12:41:32.665Z,25.55
2023-04-18T12:44:04.733Z,25.87
2023-04-18T12:46:36.967Z,25.94
2023-04-18T12:49:09.424Z,26.12
2023-04-18T12:51:42.105Z,26.41
2023-04-18T12:54:14.784Z,26.69
2023-04-18T12:56:47.915Z,26.72
2023-04-18T12:59:19.998Z,26.80
2023-04-18T13:01:52.157Z,27.11
2023-04-18T13:04:24.813Z,27.26
2023-04-18T13:06:57.361Z,27.60
2023-04-18T13:09:29.489Z,27.84
2023-04-18T13:12:02.261Z,28.12
2023-04-18T13:14:34.346Z,28.20
2023-04-18T13:17:06.827Z,27.98
2023-04-18T13:19:38.873Z,27.83
2023-04-18T13:22:11.045Z,27.33
2023-04-18T13:24:43.154Z,26.59
2023-04-18T13:27:15.760Z,25.76
2023-04-18T13:29:47.769Z,24.98
2023-04-18T13:32:19.754Z,24.35
2023-04-18T13:34:52.086Z,23.79
2023-04-18T13:37:24.610Z,23.28
2023-04-18T13:39:56.646Z,22.77
2023-04-18T13:42:28.717Z,22.67
2023-04-18T13:45:00.700Z,22.74
2023-04-18T13:47:33.230Z,22.83
2023-04-18T13:50:05.736Z,23.43
2023-04-18T13:52:37.773Z,23.40
2023-04-18T13:55:12.597Z,23.42
2023-04-18T13:57:46.051Z,23.19
2023-04-18T14:00:20.326Z,22.93
2023-04-18T14:02:53.081Z,23.16
2023-04-18T14:05:25.329Z,23.85
2023-04-18T14:08:02.479Z,24.79
2023-04-18T14:10:34.721Z,25.55
2023-04-18T14:13:06.785Z,25.41
2023-04-18T14:15:38.866Z,24.73
2023-04-18T14:18:10.981Z,24.36
2023-04-18T14:20:43.646Z,24.15
2023-04-18T14:23:16.123Z,24.03
2023-04-18T14:25:48.180Z,24.25
2023-04-18T14:28:22.143Z,24.49
2023-04-18T14:30:57.955Z,23.90
2023-04-18T14:33:30.158Z,23.04
2023-04-18T14:36:03.290Z,22.40
2023-04-18T14:38:35.437Z,21.87
2023-04-18T14:41:08.270Z,21.37
2023-04-18T14:43:40.294Z,20.90
2023-04-18T14:46:16.732Z,20.52
2023-04-18T14:48:48.824Z,20.33
2023-04-18T14:51:20.839Z,20.05
2023-04-18T14:53:53.058Z,19.84
2023-04-18T14:56:25.107Z,19.59
2023-04-18T14:58:57.203Z,19.40
2023-04-18T15:01:29.327Z,19.18
2023-04-18T15:04:03.697Z,19.06
2023-04-18T15:06:36.386Z,18.92
2023-04-18T15:09:08.326Z,18.80
2023-04-18T15:11:40.551Z,18.60
2023-04-18T15:14:13.279Z,18.44
2023-04-18T15:16:45.606Z,18.30
2023-04-18T15:19:17.708Z,18.16
2023-04-18T15:21:49.776Z,18.06
2023-04-18T15:24:21.843Z,18.04
2023-04-18T15:26:53.859Z,18.78
2023-04-18T15:29:26.388Z,19.38
2023-04-18T15:31:59.138Z,19.10
2023-04-18T15:34:31.483Z,18.88
2023-04-18T15:37:04.650Z,18.64
2023-04-18T15:39:36.598Z,18.42
2023-04-18T15:42:09.051Z,18.16
2023-04-18T15:44:41.026Z,17.93
2023-04-18T15:47:12.977Z,17.80
2023-04-18T15:49:44.956Z,17.75
2023-04-18T15:52:16.975Z,17.67
2023-04-18T15:54:48.934Z,17.56
2023-04-18T15:57:21.422Z,17.53
2023-04-18T15:59:54.029Z,17.47
2023-04-18T16:02:26.271Z,17.39
2023-04-18T16:04:58.432Z,17.30
2023-04-18T16:07:30.770Z,17.19
2023-04-18T16:10:03.861Z,17.07
2023-04-18T16:12:36.126Z,16.95
2023-04-18T16:15:11.032Z,16.85
2023-04-18T16:17:43.021Z,16.69
2023-04-18T16:20:15.554Z,16.53
2023-04-18T16:22:47.910Z,16.40
2023-04-18T16:25:20.165Z,16.30
2023-04-18T16:27:52.127Z,16.22
2023-04-18T16:30:24.240Z,16.14
2023-04-18T16:32:56.604Z,16.05
2023-04-18T16:35:28.937Z,15.97
2023-04-18T16:38:00.976Z,15.84
2023-04-18T16:40:35.147Z,15.69
2023-04-18T16:43:07.180Z,15.50
2023-04-18T16:45:39.149Z,15.39
2023-04-18T16:48:11.297Z,15.23
2023-04-18T16:50:45.697Z,15.09
2023-04-18T16:53:17.862Z,14.94
2023-04-18T16:55:50.627Z,14.83
2023-04-18T16:58:23.711Z,14.74
2023-04-18T17:00:55.923Z,14.65
2023-04-18T17:03:28.148Z,14.53
2023-04-18T17:06:01.524Z,14.43
2023-04-18T17:08:34.254Z,14.33
2023-04-18T17:11:06.490Z,14.24
2023-04-18T17:13:38.451Z,14.18
2023-04-18T17:16:11.215Z,14.09
2023-04-18T17:18:43.190Z,14.05
2023-04-18T17:21:15.271Z,13.99
2023-04-18T17:23:47.648Z,13.91
2023-04-18T17:26:19.650Z,13.84
2023-04-18T17:28:51.574Z,13.79
2023-04-18T17:31:23.590Z,13.75
2023-04-18T17:33:56.321Z,13.70
2023-04-18T17:36:28.420Z,13.66
2023-04-18T17:39:06.286Z,13.60
2023-04-18T17:41:39.904Z,13.55
2023-04-18T17:44:11.928Z,13.51
2023-04-18T17:46:43.985Z,13.47
2023-04-18T17:49:16.394Z,13.43
2023-04-18T17:51:48.730Z,13.39
2023-04-18T17:54:20.888Z,13.33
2023-04-18T17:56:52.935Z,13.31
2023-04-18T17:59:25.007Z,13.28
2023-04-18T18:01:57.674Z,13.25
2023-04-18T18:04:30.491Z,13.22
2023-04-18T18:07:02.944Z,13.17
2023-04-18T18:09:35.235Z,13.11
2023-04-18T18:12:07.859Z,13.06
2023-04-18T18:14:41.433Z,13.05
2023-04-18T18:17:13.828Z,13.05
2023-04-18T18:19:46.112Z,13.05
2023-04-18T18:22:18.400Z,13.02
2023-04-18T18:24:50.657Z,12.98
2023-04-18T18:27:23.032Z,12.95
2023-04-18T18:29:55.157Z,12.91
2023-04-18T18:32:27.934Z,12.88
2023-04-18T18:34:59.934Z,12.83
2023-04-18T18:37:32.108Z,12.79
2023-04-18T18:40:06.866Z,12.75
2023-04-18T18:42:39.783Z,12.72
2023-04-18T18:45:13.391Z,12.68
2023-04-18T18:47:46.320Z,12.63
2023-04-18T18:50:18.811Z,12.60
2023-04-18T18:52:51.122Z,12.57
2023-04-18T18:55:23.574Z,12.55
2023-04-18T18:57:56.201Z,12.50
2023-04-18T19:00:28.613Z,12.48
2023-04-18T19:03:01.124Z,12.52
2023-04-18T19:05:33.767Z,12.56
2023-04-18T19:08:06.709Z,12.60
2023-04-18T19:10:38.881Z,12.66
2023-04-18T19:13:11.041Z,12.65
2023-04-18T19:15:43.130Z,12.61
2023-04-18T19:18:15.460Z,12.57
2023-04-18T19:20:47.742Z,12.58
2023-04-18T19:23:20.052Z,12.57
2023-04-18T19:25:52.391Z,12.51
2023-04-18T19:28:24.807Z,12.48
2023-04-18T19:30:57.127Z,12.44
2023-04-18T19:33:29.549Z,12.40
2023-04-18T19:36:02.231Z,12.34
2023-04-18T19:38:34.962Z,12.31
2023-04-18T19:41:07.223Z,12.30
2023-04-18T19:43:40.861Z,12.31
2023-04-18T19:46:13.527Z,12.33
2023-04-18T19:48:45.974Z,12.37
2023-04-18T19:51:18.546Z,12.38
2023-04-18T19:53:50.881Z,12.40
2023-04-18T19:56:23.085Z,12.39
2023-04-18T19:58:55.310Z,12.39
2023-04-18T20:01:27.549Z,12.40
2023-04-18T20:04:00.707Z,12.31
2023-04-18T20:06:33.362Z,12.30
2023-04-18T20:09:05.924Z,12.28
2023-04-18T20:11:37.960Z,12.19
2023-04-18T20:14:10.107Z,12.15
2023-04-18T20:16:43.089Z,12.09
2023-04-18T20:19:15.745Z,12.07
2023-04-18T20:21:48.131Z,12.06
2023-04-18T20:24:21.138Z,12.07
2023-04-18T20:26:53.273Z,12.09
2023-04-18T20:29:25.541Z,12.14
2023-04-18T20:31:57.655Z,12.15
2023-04-18T20:34:29.679Z,12.15
2023-04-18T20:37:01.716Z,12.14
2023-04-18T20:39:33.750Z,12.10
2023-04-18T20:42:05.951Z,12.09
2023-04-18T20:44:38.755Z,12.08
2023-04-18T20:47:10.773Z,12.05
2023-04-18T20:49:42.785Z,12.04
2023-04-18T20:52:14.849Z,12.04
2023-04-18T20:54:46.860Z,12.04
2023-04-18T20:57:20.138Z,12.09
2023-04-18T20:59:52.190Z,12.12
2023-04-18T21:02:24.359Z,12.12
2023-04-18T21:04:56.469Z,12.11
2023-04-18T21:07:29.826Z,12.08
2023-04-18T21:10:01.746Z,12.05
2023-04-18T21:12:33.773Z,12.01
2023-04-18T21:15:06.708Z,11.92
2023-04-18T21:17:38.743Z,11.93
2023-04-18T21:20:12.378Z,11.95
2023-04-18T21:22:44.343Z,11.96
2023-04-18T21:25:16.669Z,12.01
2023-04-18T21:27:50.774Z,12.05
2023-04-18T21:30:23.212Z,12.05
2023-04-18T21:32:55.272Z,12.02
2023-04-18T21:35:29.918Z,11.98
2023-04-18T21:38:02.058Z,11.97
2023-04-18T21:40:34.041Z,11.96
2023-04-18T21:43:06.049Z,11.90
2023-04-18T21:45:38.044Z,11.91
2023-04-18T21:48:11.619Z,11.93
2023-04-18T21:50:43.890Z,11.89
2023-04-18T21:53:15.864Z,11.95
2023-04-18T21:55:47.819Z,11.95
2023-04-18T21:58:20.186Z,11.94
2023-04-18T22:00:52.228Z,11.91
2023-04-18T22:03:24.550Z,11.86
2023-04-18T22:05:57.716Z,11.85
2023-04-18T22:08:31.160Z,11.80
2023-04-18T22:11:04.976Z,11.74
2023-04-18T22:13:37.111Z,11.75
2023-04-18T22:16:10.128Z,11.76
2023-04-18T22:18:42.157Z,11.71
2023-04-18T22:21:14.196Z,11.72
2023-04-18T22:23:46.160Z,11.74
2023-04-18T22:26:18.255Z,11.79
2023-04-18T22:28:50.349Z,11.83
2023-04-18T22:31:22.469Z,11.80
2023-04-18T22:33:54.632Z,11.75
2023-04-18T22:36:27.147Z,11.71
2023-04-18T22:38:59.137Z,11.66
2023-04-18T22:41:31.141Z,11.65
2023-04-18T22:44:03.347Z,11.66
2023-04-18T22:46:38.597Z,11.67
2023-04-18T22:49:11.019Z,11.56
2023-04-18T22:51:44.061Z,11.48
2023-04-18T22:54:16.384Z,11.44
2023-04-18T22:56:48.735Z,11.44
2023-04-18T22:59:21.044Z,11.43
2023-04-18T23:01:53.071Z,11.39
2023-04-18T23:04:25.218Z,11.38
2023-04-18T23:06:57.425Z,11.33
2023-04-18T23:09:31.852Z,11.33
2023-04-18T23:12:04.094Z,11.31
2023-04-18T23:14:36.065Z,11.32
2023-04-18T23:17:08.054Z,11.29
2023-04-18T23:19:40.161Z,11.22
2023-04-18T23:22:12.152Z,11.16
2023-04-18T23:24:44.073Z,11.12
2023-04-18T23:27:16.187Z,11.09
2023-04-18T23:29:50.496Z,11.08
2023-04-18T23:32:22.554Z,11.08
2023-04-18T23:34:54.516Z,11.08
2023-04-18T23:37:26.476Z,11.09
2023-04-18T23:39:58.464Z,11.08
2023-04-18T23:42:30.416Z,11.08
2023-04-18T23:45:03.739Z,11.07
2023-04-18T23:47:35.858Z,11.04
2023-04-18T23:50:09.507Z,11.03
2023-04-18T23:52:41.484Z,11.00
2023-04-18T23:55:13.650Z,10.99
2023-04-18T23:57:45.648Z,10.96
